createdAt,value
2023-08-05T00:01:59.456Z,99975.10
2023-08-05T00:04:28.439Z,99976.69
2023-08-05T00:06:57.299Z,99977.73
2023-08-05T00:09:26.667Z,99969.98
2023-08-05T00:11:56.036Z,99958.98
2023-08-05T00:14:25.383Z,99951.69
2023-08-05T00:16:54.226Z,99945.55
2023-08-05T00:19:23.198Z,99943.22
2023-08-05T00:21:52.064Z,99938.55
2023-08-05T00:24:21.403Z,99934.41
2023-08-05T00:26:50.738Z,99927.83
2023-08-05T00:29:19.814Z,99925.61
2023-08-05T00:31:48.692Z,99927.86
2023-08-05T00:34:17.642Z,99928.02
2023-08-05T00:36:46.870Z,99923.25
2023-08-05T00:39:15.960Z,99925.53
2023-08-05T00:41:45.126Z,99926.02
2023-08-05T00:44:14.298Z,99929.80
2023-08-05T00:46:43.306Z,99932.33
2023-08-05T00:49:13.065Z,99932.58
2023-08-05T00:51:42.523Z,99926.58
2023-08-05T00:54:12.148Z,99924.79
2023-08-05T00:56:41.786Z,99926.04
2023-08-05T00:59:11.750Z,99924.95
2023-08-05T01:01:41.908Z,99920.35
2023-08-05T01:04:11.706Z,99918.35
2023-08-05T01:06:41.420Z,99917.13
2023-08-05T01:09:11.061Z,99915.13
2023-08-05T01:11:40.103Z,99913.85
2023-08-05T01:14:09.453Z,99922.84
2023-08-05T01:16:38.911Z,99921.41
2023-08-05T01:19:14.438Z,99919.02
2023-08-05T01:21:50.103Z,99916.27
2023-08-05T01:24:24.815Z,99914.92
2023-08-05T01:26:55.507Z,99912.69
2023-08-05T01:29:25.245Z,99909.93
2023-08-05T01:31:56.677Z,99910.71
2023-08-05T01:34:26.225Z,99909.77
2023-08-05T01:36:57.415Z,99906.30
2023-08-05T01:39:26.215Z,99908.30
2023-08-05T01:41:55.600Z,99913.61
2023-08-05T01:44:24.878Z,99906.75
2023-08-05T01:46:53.899Z,99909.09
2023-08-05T01:49:23.341Z,99912.42
2023-08-05T01:51:52.303Z,99913.77
2023-08-05T01:54:21.127Z,99914.43
2023-08-05T01:56:50.224Z,99915.36
2023-08-05T01:59:19.405Z,99912.38
2023-08-05T02:01:49.127Z,99914.72
2023-08-05T02:04:18.286Z,99908.45
2023-08-05T02:06:47.404Z,99912.56
2023-08-05T02:09:16.981Z,99910.64
2023-08-05T02:11:46.812Z,99912.45
2023-08-05T02:14:16.792Z,99911.23
2023-08-05T02:16:46.099Z,99915.47
2023-08-05T02:19:15.209Z,99912.27
2023-08-05T02:21:44.520Z,99909.95
2023-08-05T02:24:13.486Z,99913.84
2023-08-05T02:26:42.612Z,99916.48
2023-08-05T02:29:12.538Z,99917.55
2023-08-05T02:31:43.514Z,99917.52
2023-08-05T02:34:12.413Z,99923.37
2023-08-05T02:36:42.013Z,99922.63
2023-08-05T02:39:11.015Z,99921.45
2023-08-05T02:41:40.626Z,99921.40
2023-08-05T02:44:09.548Z,99921.42
2023-08-05T02:46:38.419Z,99928.73
2023-08-05T02:49:09.308Z,99933.63
2023-08-05T02:51:38.661Z,99933.41
2023-08-05T02:54:07.666Z,99939.42
2023-08-05T02:56:38.087Z,99942.08
2023-08-05T02:59:06.961Z,99942.89
2023-08-05T03:01:36.844Z,99937.63
2023-08-05T03:04:06.223Z,99942.37
2023-08-05T03:06:35.197Z,99937.09
2023-08-05T03:09:04.724Z,99930.92
2023-08-05T03:11:33.742Z,99927.11
2023-08-05T03:14:03.754Z,99918.80
2023-08-05T03:16:33.170Z,99911.10
2023-08-05T03:19:08.348Z,99907.05
2023-08-05T03:21:37.447Z,99906.39
2023-08-05T03:24:06.520Z,99911.61
2023-08-05T03:26:37.438Z,99912.02
2023-08-05T03:29:07.982Z,99919.51
2023-08-05T03:31:37.250Z,99919.55
2023-08-05T03:34:07.834Z,99929.64
2023-08-05T03:36:37.358Z,99929.86
2023-08-05T03:39:07.430Z,99938.89
2023-08-05T03:41:36.341Z,99955.90
2023-08-05T03:44:05.720Z,99958.63
2023-08-05T03:46:35.157Z,99947.70
2023-08-05T03:49:04.411Z,99940.25
2023-08-05T03:51:33.436Z,99932.11
2023-08-05T03:54:05.594Z,99923.80
2023-08-05T03:56:35.289Z,99924.00
2023-08-05T03:59:04.984Z,99927.16
2023-08-05T04:01:35.574Z,99927.36
2023-08-05T04:04:05.158Z,99933.84
2023-08-05T04:06:34.232Z,99930.25
2023-08-05T04:09:06.027Z,99932.77
2023-08-05T04:11:37.292Z,99938.64
2023-08-05T04:14:06.670Z,99956.05
2023-08-05T04:16:35.506Z,99966.32
2023-08-05T04:19:04.584Z,99965.30
2023-08-05T04:21:40.580Z,99956.60
2023-08-05T04:24:10.037Z,99943.23
2023-08-05T04:26:38.918Z,99940.98
2023-08-05T04:29:10.428Z,99944.21
2023-08-05T04:31:42.971Z,99941.55
2023-08-05T04:34:12.213Z,99934.02
2023-08-05T04:36:41.166Z,99938.79
2023-08-05T04:39:10.093Z,99950.20
2023-08-05T04:41:39.728Z,99954.14
2023-08-05T04:44:09.951Z,99947.03
2023-08-05T04:46:39.272Z,99944.53
2023-08-05T04:49:10.690Z,99942.04
2023-08-05T04:51:39.523Z,99945.52
2023-08-05T04:54:10.331Z,99947.45
2023-08-05T04:56:39.752Z,99942.16
2023-08-05T04:59:08.596Z,99935.48
2023-08-05T05:01:38.000Z,99941.90
2023-08-05T05:04:07.099Z,99946.80
2023-08-05T05:06:35.955Z,99947.84
2023-08-05T05:09:05.186Z,99952.49
2023-08-05T05:11:34.307Z,99954.89
2023-08-05T05:14:04.514Z,99958.63
2023-08-05T05:16:33.534Z,99960.31
2023-08-05T05:19:02.724Z,99964.02
2023-08-05T05:21:32.284Z,99960.36
2023-08-05T05:24:01.602Z,99965.27
2023-08-05T05:26:30.585Z,99960.40
2023-08-05T05:28:59.403Z,99964.29
2023-08-05T05:31:28.406Z,99968.46
2023-08-05T05:33:57.458Z,99964.88
2023-08-05T05:36:27.052Z,99968.06
2023-08-05T05:38:56.007Z,99971.94
2023-08-05T05:41:25.183Z,99972.30
2023-08-05T05:43:54.070Z,99969.84
2023-08-05T05:46:29.513Z,99972.33
2023-08-05T05:48:59.014Z,99961.42
2023-08-05T05:51:28.178Z,99961.14
2023-08-05T05:53:58.290Z,99962.69
2023-08-05T05:56:27.799Z,99962.88
2023-08-05T05:58:56.976Z,99960.44
2023-08-05T06:01:26.418Z,99959.16
2023-08-05T06:03:55.898Z,99955.70
2023-08-05T06:06:24.961Z,99951.14
2023-08-05T06:08:54.036Z,99946.36
2023-08-05T06:11:22.982Z,99949.74
2023-08-05T06:13:51.923Z,99946.60
2023-08-05T06:16:20.899Z,99941.00
2023-08-05T06:18:49.787Z,99936.75
2023-08-05T06:21:19.228Z,99935.84
2023-08-05T06:23:48.473Z,99931.85
2023-08-05T06:26:17.430Z,99920.05
2023-08-05T06:28:46.323Z,99915.91
2023-08-05T06:31:15.549Z,99919.36
2023-08-05T06:33:44.765Z,99923.34
2023-08-05T06:36:13.729Z,99917.08
2023-08-05T06:38:42.785Z,99914.66
2023-08-05T06:41:11.682Z,99912.85
2023-08-05T06:43:40.983Z,99911.17
2023-08-05T06:46:10.732Z,99907.11
2023-08-05T06:48:39.959Z,99911.73
2023-08-05T06:51:11.897Z,99908.58
2023-08-05T06:53:44.983Z,99902.45
2023-08-05T06:56:14.307Z,99898.50
2023-08-05T06:58:43.358Z,99898.91
2023-08-05T07:01:12.214Z,99899.09
2023-08-05T07:03:42.581Z,99898.31
2023-08-05T07:06:11.634Z,99894.05
2023-08-05T07:08:40.524Z,99898.75
2023-08-05T07:11:09.356Z,99899.33
2023-08-05T07:13:38.259Z,99898.79
2023-08-05T07:16:08.361Z,99902.09
2023-08-05T07:18:37.301Z,99897.67
2023-08-05T07:21:06.475Z,99900.77
2023-08-05T07:23:35.694Z,99902.48
2023-08-05T07:26:04.773Z,99906.30
2023-08-05T07:28:34.035Z,99908.02
2023-08-05T07:31:04.708Z,99906.73
2023-08-05T07:33:33.852Z,99904.20
2023-08-05T07:36:10.155Z,99899.65
2023-08-05T07:38:42.317Z,99898.86
2023-08-05T07:41:13.372Z,99897.48
2023-08-05T07:43:43.116Z,99896.23
2023-08-05T07:46:14.178Z,99897.60
2023-08-05T07:48:46.187Z,99896.80
2023-08-05T07:51:15.086Z,99891.34
2023-08-05T07:53:43.984Z,99897.16
2023-08-05T07:56:14.624Z,99892.76
2023-08-05T07:58:46.228Z,99893.92
2023-08-05T08:01:19.991Z,99887.97
2023-08-05T08:03:49.376Z,99885.72
2023-08-05T08:06:22.095Z,99885.45
2023-08-05T08:08:52.208Z,99889.20
2023-08-05T08:11:21.399Z,99894.34
2023-08-05T08:13:50.576Z,99894.98
2023-08-05T08:16:20.903Z,99895.97
2023-08-05T08:18:49.894Z,99898.70
2023-08-05T08:21:18.761Z,99906.42
2023-08-05T08:23:47.674Z,99912.66
2023-08-05T08:26:16.927Z,99914.70
2023-08-05T08:28:46.494Z,99916.34
2023-08-05T08:31:15.406Z,99914.21
2023-08-05T08:33:44.949Z,99907.58
2023-08-05T08:36:13.804Z,99910.50
2023-08-05T08:38:42.985Z,99903.41
2023-08-05T08:41:12.178Z,99898.50
2023-08-05T08:43:43.673Z,99904.86
2023-08-05T08:46:13.596Z,99903.17
2023-08-05T08:48:45.293Z,99894.61
2023-08-05T08:51:14.736Z,99889.70
2023-08-05T08:53:45.503Z,99886.44
2023-08-05T08:56:14.858Z,99883.21
2023-08-05T08:58:44.210Z,99884.77
2023-08-05T09:01:16.888Z,99883.23
2023-08-05T09:03:49.037Z,99880.23
2023-08-05T09:06:18.550Z,99876.45
2023-08-05T09:08:47.896Z,99876.15
2023-08-05T09:11:17.160Z,99878.61
2023-08-05T09:13:46.321Z,99876.17
2023-08-05T09:16:15.608Z,99873.48
2023-08-05T09:18:45.630Z,99870.92
2023-08-05T09:21:23.190Z,99870.98
2023-08-05T09:23:54.102Z,99864.89
2023-08-05T09:26:33.812Z,99852.65
2023-08-05T09:29:05.748Z,99849.55
2023-08-05T09:31:35.130Z,99845.02
2023-08-05T09:34:09.199Z,99841.00
2023-08-05T09:36:41.374Z,99837.33
2023-08-05T09:39:13.871Z,99832.85
2023-08-05T09:41:52.222Z,99835.71
2023-08-05T09:44:21.459Z,99830.85
2023-08-05T09:46:52.026Z,99827.45
2023-08-05T09:49:23.526Z,99827.83
2023-08-05T09:51:54.224Z,99826.13
2023-08-05T09:54:31.441Z,99828.24
2023-08-05T09:57:03.970Z,99825.69
2023-08-05T09:59:33.809Z,99821.71
2023-08-05T10:02:03.318Z,99821.70
2023-08-05T10:04:32.577Z,99821.52
2023-08-05T10:07:02.383Z,99822.56
2023-08-05T10:09:31.291Z,99818.95
2023-08-05T10:12:02.770Z,99821.59
2023-08-05T10:14:32.979Z,99818.80
2023-08-05T10:17:02.928Z,99814.70
2023-08-05T10:19:32.974Z,99814.98
2023-08-05T10:22:11.773Z,99817.08
2023-08-05T10:24:55.003Z,99816.48
2023-08-05T10:27:38.947Z,99808.48
2023-08-05T10:30:10.763Z,99807.95
2023-08-05T10:32:53.685Z,99806.02
2023-08-05T10:35:40.132Z,99807.46
2023-08-05T10:38:17.237Z,99804.24
2023-08-05T10:40:51.828Z,99802.84
2023-08-05T10:43:35.814Z,99804.49
2023-08-05T10:46:13.444Z,99806.02
2023-08-05T10:48:43.488Z,99801.23
2023-08-05T10:51:14.889Z,99799.19
2023-08-05T10:53:58.893Z,99796.45
2023-08-05T10:56:31.561Z,99790.86
2023-08-05T10:59:02.088Z,99790.64
2023-08-05T11:01:56.153Z,99789.16
2023-08-05T11:04:29.362Z,99789.95
2023-08-05T11:07:00.842Z,99789.64
2023-08-05T11:09:34.135Z,99785.92
2023-08-05T11:12:03.694Z,99787.68
2023-08-05T11:14:35.145Z,99781.44
2023-08-05T11:17:07.622Z,99784.45
2023-08-05T11:19:54.116Z,99780.08
2023-08-05T11:22:25.976Z,99773.71
2023-08-05T11:25:02.655Z,99772.96
2023-08-05T11:27:33.989Z,99770.29
2023-08-05T11:30:13.435Z,99770.16
2023-08-05T11:32:53.552Z,99772.84
2023-08-05T11:35:22.645Z,99773.98
2023-08-05T11:37:51.723Z,99768.36
2023-08-05T11:40:21.228Z,99762.71
2023-08-05T11:42:50.939Z,99771.10
2023-08-05T11:45:20.261Z,99765.98
2023-08-05T11:47:49.420Z,99768.30
2023-08-05T11:50:18.458Z,99768.02
2023-08-05T11:53:07.643Z,99772.69
2023-08-05T11:55:40.220Z,99780.79
2023-08-05T11:58:10.990Z,99784.97
2023-08-05T12:00:44.847Z,99782.30
2023-08-05T12:03:14.747Z,99781.20
2023-08-05T12:05:45.227Z,99778.15
2023-08-05T12:08:34.351Z,99775.34
2023-08-05T12:11:03.215Z,99765.77
2023-08-05T12:13:35.038Z,99755.89
2023-08-05T12:16:14.671Z,99757.29
2023-08-05T12:18:44.511Z,99751.69
2023-08-05T12:21:13.531Z,99747.08
2023-08-05T12:23:42.770Z,99742.27
2023-08-05T12:26:13.478Z,99737.33
2023-08-05T12:28:42.401Z,99734.15
2023-08-05T12:31:13.890Z,99736.54
2023-08-05T12:33:43.025Z,99735.77
2023-08-05T12:36:12.358Z,99743.61
2023-08-05T12:38:41.249Z,99738.27
2023-08-05T12:41:11.557Z,99726.57
2023-08-05T12:43:40.712Z,99725.65
2023-08-05T12:46:09.711Z,99731.02
2023-08-05T12:48:38.818Z,99728.70
2023-08-05T12:51:08.019Z,99733.52
2023-08-05T12:53:37.230Z,99734.45
2023-08-05T12:56:06.681Z,99729.69
2023-08-05T12:58:35.922Z,99728.41
2023-08-05T13:01:05.216Z,99730.28
2023-08-05T13:03:35.027Z,99732.80
2023-08-05T13:06:04.491Z,99737.45
2023-08-05T13:08:33.535Z,99737.31
2023-08-05T13:11:02.385Z,99744.84
2023-08-05T13:13:31.397Z,99741.91
2023-08-05T13:16:00.279Z,99735.48
2023-08-05T13:18:29.254Z,99731.00
2023-08-05T13:20:58.183Z,99737.96
2023-08-05T13:23:27.866Z,99746.29
2023-08-05T13:25:57.091Z,99748.30
2023-08-05T13:28:26.368Z,99742.59
2023-08-05T13:31:02.078Z,99733.63
2023-08-05T13:33:31.444Z,99730.84
2023-08-05T13:36:00.741Z,99731.70
2023-08-05T13:38:29.723Z,99727.09
2023-08-05T13:40:58.664Z,99727.05
2023-08-05T13:43:27.724Z,99720.07
2023-08-05T13:45:57.603Z,99717.82
2023-08-05T13:48:28.496Z,99718.20
2023-08-05T13:51:04.327Z,99715.52
2023-08-05T13:53:33.612Z,99714.56
2023-08-05T13:56:02.956Z,99721.23
2023-08-05T13:58:32.655Z,99728.13
2023-08-05T14:01:03.391Z,99731.28
2023-08-05T14:03:32.702Z,99725.44
2023-08-05T14:06:02.231Z,99723.20
2023-08-05T14:08:32.024Z,99719.75
2023-08-05T14:11:00.963Z,99713.83
2023-08-05T14:13:30.413Z,99714.23
2023-08-05T14:15:59.588Z,99708.93
2023-08-05T14:18:29.253Z,99710.34
2023-08-05T14:20:58.412Z,99708.58
2023-08-05T14:23:27.669Z,99708.48
2023-08-05T14:25:56.580Z,99707.56
2023-08-05T14:28:26.220Z,99710.27
2023-08-05T14:30:55.148Z,99706.95
2023-08-05T14:33:24.436Z,99710.55
2023-08-05T14:35:53.232Z,99708.38
2023-08-05T14:38:22.170Z,99701.68
2023-08-05T14:40:51.180Z,99699.10
2023-08-05T14:43:20.140Z,99698.09
2023-08-05T14:45:49.174Z,99699.27
2023-08-05T14:48:18.599Z,99698.61
2023-08-05T14:50:47.584Z,99695.86
2023-08-05T14:53:16.776Z,99697.80
2023-08-05T14:55:56.507Z,99693.36
2023-08-05T14:58:25.644Z,99687.94
2023-08-05T15:00:54.696Z,99692.48
2023-08-05T15:03:24.021Z,99696.90
2023-08-05T15:05:55.290Z,99705.55
2023-08-05T15:08:26.040Z,99704.26
2023-08-05T15:11:01.340Z,99701.93
2023-08-05T15:13:30.568Z,99697.14
2023-08-05T15:15:59.549Z,99697.88
2023-08-05T15:18:28.609Z,99696.71
2023-08-05T15:21:02.374Z,99698.75
2023-08-05T15:23:31.919Z,99694.63
2023-08-05T15:26:03.276Z,99693.34
2023-08-05T15:28:32.593Z,99693.69
2023-08-05T15:31:01.956Z,99686.58
2023-08-05T15:33:31.023Z,99685.61
2023-08-05T15:35:59.945Z,99684.28
2023-08-05T15:38:29.212Z,99684.55
2023-08-05T15:41:01.420Z,99683.53
2023-08-05T15:43:30.411Z,99681.85
2023-08-05T15:45:59.359Z,99681.06
2023-08-05T15:48:28.558Z,99684.53
2023-08-05T15:51:03.832Z,99677.96
2023-08-05T15:53:32.896Z,99676.83
2023-08-05T15:56:04.334Z,99672.74
2023-08-05T15:58:33.351Z,99671.17
2023-08-05T16:01:03.180Z,99669.92
2023-08-05T16:03:33.562Z,99665.47
2023-08-05T16:06:04.330Z,99658.14
2023-08-05T16:08:34.594Z,99648.77
2023-08-05T16:11:05.372Z,99644.27
2023-08-05T16:13:34.997Z,99638.52
2023-08-05T16:16:11.883Z,99640.98
2023-08-05T16:18:42.463Z,99639.58
2023-08-05T16:21:16.924Z,99638.52
2023-08-05T16:23:46.690Z,99642.42
2023-08-05T16:26:16.845Z,99646.02
2023-08-05T16:28:47.587Z,99647.70
2023-08-05T16:31:17.968Z,99646.19
2023-08-05T16:33:47.609Z,99639.21
2023-08-05T16:36:16.890Z,99638.36
2023-08-05T16:38:46.872Z,99635.23
2023-08-05T16:41:15.758Z,99633.91
2023-08-05T16:43:45.078Z,99625.70
2023-08-05T16:46:14.099Z,99621.73
2023-08-05T16:48:43.430Z,99623.90
2023-08-05T16:51:12.646Z,99624.36
2023-08-05T16:53:42.109Z,99617.45
2023-08-05T16:56:11.347Z,99605.82
2023-08-05T16:58:43.236Z,99600.11
2023-08-05T17:01:14.937Z,99596.77
2023-08-05T17:03:46.368Z,99600.86
2023-08-05T17:06:16.539Z,99601.19
2023-08-05T17:08:45.766Z,99608.48
2023-08-05T17:11:15.264Z,99608.34
2023-08-05T17:13:48.343Z,99598.92
2023-08-05T17:16:19.338Z,99593.55
2023-08-05T17:18:48.349Z,99594.86
2023-08-05T17:21:18.295Z,99593.81
2023-08-05T17:23:48.156Z,99586.36
2023-08-05T17:26:18.382Z,99576.88
2023-08-05T17:28:47.976Z,99570.98
2023-08-05T17:31:16.888Z,99566.30
2023-08-05T17:33:45.799Z,99567.83
2023-08-05T17:36:14.748Z,99575.11
2023-08-05T17:38:44.284Z,99573.83
2023-08-05T17:41:13.064Z,99570.25
2023-08-05T17:43:42.376Z,99569.37
2023-08-05T17:46:11.659Z,99576.88
2023-08-05T17:48:40.911Z,99582.25
2023-08-05T17:51:10.217Z,99581.73
2023-08-05T17:53:39.201Z,99578.98
2023-08-05T17:56:09.415Z,99573.33
2023-08-05T17:58:39.506Z,99571.20
2023-08-05T18:01:08.798Z,99575.77
2023-08-05T18:03:38.094Z,99574.45
2023-08-05T18:06:20.392Z,99575.42
2023-08-05T18:08:51.654Z,99581.30
2023-08-05T18:11:21.361Z,99577.13
2023-08-05T18:13:50.309Z,99581.98
2023-08-05T18:16:20.572Z,99584.04
2023-08-05T18:18:50.395Z,99580.80
2023-08-05T18:21:20.401Z,99574.84
2023-08-05T18:23:50.316Z,99571.20
2023-08-05T18:26:19.588Z,99560.23
2023-08-05T18:28:50.637Z,99567.63
2023-08-05T18:31:20.055Z,99565.52
2023-08-05T18:33:49.091Z,99561.88
2023-08-05T18:36:18.557Z,99552.60
2023-08-05T18:38:47.867Z,99546.29
2023-08-05T18:41:17.477Z,99538.34
2023-08-05T18:43:46.843Z,99537.48
2023-08-05T18:46:15.949Z,99533.16
2023-08-05T18:48:45.128Z,99532.75
2023-08-05T18:51:15.034Z,99534.04
2023-08-05T18:53:44.137Z,99534.98
2023-08-05T18:56:14.125Z,99542.27
2023-08-05T18:58:43.465Z,99530.90
2023-08-05T19:01:12.489Z,99524.30
2023-08-05T19:03:41.607Z,99522.02
2023-08-05T19:06:11.083Z,99523.62
2023-08-05T19:08:43.107Z,99526.42
2023-08-05T19:11:15.507Z,99526.45
2023-08-05T19:13:44.873Z,99534.48
2023-08-05T19:16:14.524Z,99535.55
2023-08-05T19:18:43.962Z,99532.70
2023-08-05T19:21:13.321Z,99523.74
2023-08-05T19:23:42.079Z,99521.55
2023-08-05T19:26:11.307Z,99511.77
2023-08-05T19:28:40.839Z,99509.15
2023-08-05T19:31:10.401Z,99506.15
2023-08-05T19:33:41.271Z,99505.08
2023-08-05T19:36:15.088Z,99500.27
2023-08-05T19:38:45.096Z,99497.35
2023-08-05T19:41:14.111Z,99489.08
2023-08-05T19:43:43.655Z,99490.30
2023-08-05T19:46:24.072Z,99495.24
2023-08-05T19:48:59.901Z,99497.80
2023-08-05T19:51:29.995Z,99500.05
2023-08-05T19:53:58.941Z,99494.35
2023-08-05T19:56:28.109Z,99492.20
2023-08-05T19:58:57.796Z,99495.88
2023-08-05T20:01:27.271Z,99491.12
2023-08-05T20:03:57.219Z,99478.52
2023-08-05T20:06:26.309Z,99472.97
2023-08-05T20:08:57.445Z,99469.20
2023-08-05T20:11:31.293Z,99471.71
2023-08-05T20:14:00.612Z,99469.10
2023-08-05T20:16:39.680Z,99466.23
2023-08-05T20:19:22.448Z,99462.82
2023-08-05T20:22:09.419Z,99458.77
2023-08-05T20:24:50.691Z,99449.30
2023-08-05T20:27:22.804Z,99443.56
2023-08-05T20:29:53.042Z,99443.23
2023-08-05T20:32:27.942Z,99441.98
2023-08-05T20:35:04.333Z,99428.48
2023-08-05T20:37:47.891Z,99420.56
2023-08-05T20:40:30.220Z,99416.98
2023-08-05T20:43:13.296Z,99414.50
2023-08-05T20:46:06.064Z,99413.45
2023-08-05T20:48:48.291Z,99417.61
2023-08-05T20:51:18.944Z,99415.16
2023-08-05T20:53:48.185Z,99412.45
2023-08-05T20:56:17.295Z,99414.07
2023-08-05T20:58:53.542Z,99415.17
2023-08-05T21:01:32.764Z,99409.80
2023-08-05T21:04:18.621Z,99401.27
2023-08-05T21:06:56.400Z,99396.11
2023-08-05T21:09:27.841Z,99398.95
2023-08-05T21:11:57.557Z,99393.42
2023-08-05T21:14:28.900Z,99387.95
2023-08-05T21:17:02.086Z,99385.73
2023-08-05T21:19:38.379Z,99385.41
2023-08-05T21:22:17.178Z,99386.48
2023-08-05T21:24:59.713Z,99385.14
2023-08-05T21:27:37.999Z,99381.06
2023-08-05T21:30:17.792Z,99375.50
2023-08-05T21:32:48.480Z,99375.28
2023-08-05T21:35:19.470Z,99378.73
2023-08-05T21:38:00.473Z,99370.71
2023-08-05T21:40:38.019Z,99372.36
2023-08-05T21:43:12.279Z,99374.42
2023-08-05T21:45:51.625Z,99369.67
2023-08-05T21:48:25.541Z,99368.31
2023-08-05T21:50:57.784Z,99369.77
2023-08-05T21:53:27.194Z,99365.36
2023-08-05T21:55:59.335Z,99363.20
2023-08-05T21:58:34.317Z,99348.77
2023-08-05T22:01:05.098Z,99334.75
2023-08-05T22:03:34.655Z,99325.39
2023-08-05T22:06:11.158Z,99320.01
2023-08-05T22:08:41.185Z,99309.45
2023-08-05T22:11:10.935Z,99298.06
2023-08-05T22:13:40.295Z,99282.08
2023-08-05T22:16:10.145Z,99275.80
2023-08-05T22:18:39.216Z,99276.39
2023-08-05T22:21:08.656Z,99264.77
2023-08-05T22:23:37.706Z,99256.95
2023-08-05T22:26:07.474Z,99263.23
2023-08-05T22:28:36.763Z,99268.01
2023-08-05T22:31:06.588Z,99263.20
2023-08-05T22:33:35.516Z,99267.46
2023-08-05T22:36:12.144Z,99272.46
2023-08-05T22:38:41.119Z,99262.73
2023-08-05T22:41:10.027Z,99260.29
2023-08-05T22:43:39.583Z,99261.67
2023-08-05T22:46:08.508Z,99253.56
2023-08-05T22:48:37.791Z,99245.04
2023-08-05T22:51:10.050Z,99230.91
2023-08-05T22:53:39.564Z,99237.59
2023-08-05T22:56:08.787Z,99230.56
2023-08-05T22:58:37.540Z,99224.56
2023-08-05T23:01:06.761Z,99220.64
2023-08-05T23:03:36.366Z,99221.19
2023-08-05T23:06:05.749Z,99221.14
2023-08-05T23:08:34.664Z,99220.54
2023-08-05T23:11:07.938Z,99216.55
2023-08-05T23:13:37.849Z,99207.06
2023-08-05T23:16:11.839Z,99211.86
2023-08-05T23:18:40.978Z,99207.02
2023-08-05T23:21:10.709Z,99195.22
2023-08-05T23:23:39.862Z,99200.00
2023-08-05T23:26:10.113Z,99209.15
2023-08-05T23:28:38.986Z,99213.17
2023-08-05T23:31:07.862Z,99223.05
2023-08-05T23:33:37.262Z,99221.27
2023-08-05T23:36:06.465Z,99214.30
2023-08-05T23:38:35.896Z,99206.39
2023-08-05T23:41:05.144Z,99204.17
2023-08-05T23:43:34.264Z,99192.44
2023-08-05T23:46:03.337Z,99193.20
2023-08-05T23:48:32.811Z,99206.05
2023-08-05T23:51:02.244Z,99217.92
2023-08-05T23:53:31.204Z,99230.53
2023-08-05T23:56:00.433Z,99237.27
2023-08-05T23:58:29.266Z,99247.48
